Time;durP1;ratioP1;P1;durP2;ratioP2;P2;SDS_P1;SDS_P2;PMS_P1;PMS_P2;Temp;Humidity;BMP_temperature;BMP_pressure;BME280_temperature;BME280_humidity;BME280_pressure;Samples;Min_cycle;Max_cycle;Signal;HPM_P1;HPM_P2
2021/01/26 00:02:19;;;;;;;;;;;29.60;30.00;;;;;;5074110;28;20019;-62
2021/01/26 00:04:45;;;;;;;;;;;29.60;30.50;;;;;;5073683;28;19919;-63
2021/01/26 00:07:10;;;;;;;;;;;29.60;30.50;;;;;;5081055;28;19922;-62
2021/01/26 00:09:36;;;;;;;;;;;29.60;30.50;;;;;;5075679;28;19921;-62
2021/01/26 00:12:01;;;;;;;;;;;29.60;30.50;;;;;;5073643;28;19931;-62
2021/01/26 00:14:27;;;;;;;;;;;29.60;30.50;;;;;;5073810;28;19960;-62
2021/01/26 00:16:52;;;;;;;;;;;29.60;30.40;;;;;;5073539;28;20030;-62
2021/01/26 00:19:18;;;;;;;;;;;29.60;30.50;;;;;;5073502;28;19919;-62
2021/01/26 00:21:43;;;;;;;;;;;29.60;30.40;;;;;;5074227;28;19912;-62
2021/01/26 00:24:09;;;;;;;;;;;29.60;30.40;;;;;;5073511;28;19909;-62
2021/01/26 00:26:35;;;;;;;;;;;29.60;30.40;;;;;;5072630;28;19909;-63
2021/01/26 00:29:00;;;;;;;;;;;29.60;30.40;;;;;;5073469;28;19923;-62
2021/01/26 00:31:26;;;;;;;;;;;29.60;30.40;;;;;;5093555;28;19916;-63
2021/01/26 00:33:52;;;;;;;;;;;29.60;30.40;;;;;;5093838;28;19943;-62
2021/01/26 00:36:18;;;;;;;;;;;29.60;30.40;;;;;;5093799;28;19966;-62
2021/01/26 00:38:43;;;;;;;;;;;29.60;30.40;;;;;;5092314;28;19919;-63
2021/01/26 00:41:08;;;;;;;;;;;29.50;30.50;;;;;;5073584;28;20274;-63
2021/01/26 00:43:34;;;;;;;;;;;29.50;30.40;;;;;;5073136;28;19915;-63
2021/01/26 00:45:59;;;;;;;;;;;29.50;30.60;;;;;;5073595;28;19990;-62
2021/01/26 00:48:25;;;;;;;;;;;29.60;30.60;;;;;;5073393;28;20385;-63
2021/01/26 00:50:50;;;;;;;;;;;29.60;30.60;;;;;;5073251;28;20382;-62
2021/01/26 00:53:16;;;;;;;;;;;29.60;30.50;;;;;;5072956;28;19959;-62
2021/01/26 00:55:41;;;;;;;;;;;29.60;30.40;;;;;;5073398;28;19921;-63
2021/01/26 00:58:07;;;;;;;;;;;29.60;30.50;;;;;;5073307;28;20377;-63
2021/01/26 01:00:33;;;;;;;;;;;29.60;30.40;;;;;;5089590;28;19915;-63
2021/01/26 01:02:58;;;;;;;;;;;29.60;30.40;;;;;;5093252;28;20011;-63
2021/01/26 01:05:24;;;;;;;;;;;29.60;30.40;;;;;;5093233;28;19995;-63
2021/01/26 01:07:49;;;;;;;;;;;29.60;30.30;;;;;;5092907;28;19908;-63
2021/01/26 01:10:17;;;;;;;;;;;29.60;30.30;;;;;;5093051;28;19915;-63
2021/01/26 01:12:43;;;;;;;;;;;29.70;30.40;;;;;;5093212;28;20324;-63
2021/01/26 01:15:09;;;;;;;;;;;29.60;30.30;;;;;;5076774;28;19920;-63
2021/01/26 01:17:34;;;;;;;;;;;29.60;30.30;;;;;;5092582;28;19957;-63
2021/01/26 01:20:00;;;;;;;;;;;29.60;30.30;;;;;;5093066;28;19942;-62
2021/01/26 01:22:26;;;;;;;;;;;29.60;30.30;;;;;;5092932;28;20003;-62
2021/01/26 01:24:51;;;;;;;;;;;29.60;30.20;;;;;;5093038;28;19908;-63
2021/01/26 01:27:17;;;;;;;;;;;29.60;30.20;;;;;;5075373;28;20336;-63
2021/01/26 01:29:42;;;;;;;;;;;29.60;30.20;;;;;;5072487;28;19967;-63
2021/01/26 01:32:08;;;;;;;;;;;29.60;30.20;;;;;;5072847;28;19912;-62
2021/01/26 01:34:33;;;;;;;;;;;29.60;30.20;;;;;;5080539;28;20389;-62
2021/01/26 01:36:59;;;;;;;;;;;29.60;30.20;;;;;;5095815;28;19954;-63
2021/01/26 01:39:24;;;;;;;;;;;29.60;30.20;;;;;;5099665;28;19908;-63
2021/01/26 01:41:50;;;;;;;;;;;29.60;30.20;;;;;;5099678;28;20274;-63
2021/01/26 01:44:18;;;;;;;;;;;29.60;30.20;;;;;;5099287;28;19961;-63
2021/01/26 01:46:50;;;;;;;;;;;29.60;30.20;;;;;;5099507;28;19908;-62
2021/01/26 01:49:17;;;;;;;;;;;29.60;30.20;;;;;;5097980;28;19912;-63
2021/01/26 01:51:42;;;;;;;;;;;29.60;30.20;;;;;;5081631;28;19909;-63
2021/01/26 01:54:10;;;;;;;;;;;29.60;30.10;;;;;;5092222;28;19920;-63
2021/01/26 01:56:43;;;;;;;;;;;29.60;30.10;;;;;;5078878;28;19908;-63
2021/01/26 01:59:10;;;;;;;;;;;29.60;30.10;;;;;;5079339;28;20285;-62
2021/01/26 02:01:35;;;;;;;;;;;29.60;30.20;;;;;;5079242;28;20018;-63
2021/01/26 02:04:02;;;;;;;;;;;29.60;30.20;;;;;;5079139;28;20374;-62
2021/01/26 02:06:32;;;;;;;;;;;29.50;30.10;;;;;;5079109;28;19999;-62
2021/01/26 02:09:04;;;;;;;;;;;29.50;30.20;;;;;;5083390;28;19912;-62
2021/01/26 02:11:30;;;;;;;;;;;29.50;30.20;;;;;;5091433;28;19966;-62
2021/01/26 02:13:55;;;;;;;;;;;29.60;30.20;;;;;;5092846;28;19916;-62
2021/01/26 02:16:30;;;;;;;;;;;29.60;30.20;;;;;;5079035;28;20347;-62
2021/01/26 02:19:12;;;;;;;;;;;29.60;30.20;;;;;;5079033;28;20330;-62
2021/01/26 02:21:38;;;;;;;;;;;29.50;30.10;;;;;;5060997;28;19908;-62
2021/01/26 02:24:21;;;;;;;;;;;29.50;30.10;;;;;;5078738;28;19919;-62
2021/01/26 02:26:50;;;;;;;;;;;29.50;30.00;;;;;;5078909;28;19915;-62
2021/01/26 02:29:16;;;;;;;;;;;29.50;30.10;;;;;;5097447;28;19930;-62
2021/01/26 02:31:45;;;;;;;;;;;29.50;30.10;;;;;;5081135;28;19951;-63
2021/01/26 02:34:14;;;;;;;;;;;29.50;30.00;;;;;;5069296;28;21879;-62
2021/01/26 02:36:45;;;;;;;;;;;29.50;30.00;;;;;;5078614;28;19993;-63
2021/01/26 02:39:29;;;;;;;;;;;29.50;30.00;;;;;;5078937;28;19909;-63
2021/01/26 02:41:57;;;;;;;;;;;29.50;30.00;;;;;;5084426;28;19916;-63
2021/01/26 02:44:24;;;;;;;;;;;29.50;30.00;;;;;;5098805;28;20377;-63
2021/01/26 02:46:58;;;;;;;;;;;29.50;30.00;;;;;;5080600;28;20389;-63
2021/01/26 02:49:35;;;;;;;;;;;29.50;30.00;;;;;;5095297;28;20026;-63
2021/01/26 02:52:03;;;;;;;;;;;29.50;30.00;;;;;;5095641;28;19915;-63
2021/01/26 02:54:29;;;;;;;;;;;29.50;30.60;;;;;;5093833;28;19924;-63
2021/01/26 02:57:01;;;;;;;;;;;29.50;30.00;;;;;;5095584;28;19914;-63
2021/01/26 02:59:46;;;;;;;;;;;29.50;30.00;;;;;;5095501;28;19912;-64
2021/01/26 03:02:22;;;;;;;;;;;29.50;30.00;;;;;;5095745;28;19908;-64
2021/01/26 03:04:50;;;;;;;;;;;29.50;30.00;;;;;;5077432;28;19963;-63
2021/01/26 03:07:16;;;;;;;;;;;29.50;30.00;;;;;;5077318;28;20005;-63
2021/01/26 03:09:42;;;;;;;;;;;29.50;30.00;;;;;;5074104;28;19912;-63
2021/01/26 03:12:15;;;;;;;;;;;29.50;29.90;;;;;;5077501;28;19948;-63
2021/01/26 03:14:47;;;;;;;;;;;29.50;30.00;;;;;;5095211;28;19982;-63
2021/01/26 03:17:28;;;;;;;;;;;29.50;30.40;;;;;;5095345;28;19995;-63
2021/01/26 03:19:54;;;;;;;;;;;29.50;29.90;;;;;;5076945;28;20362;-63
2021/01/26 03:22:20;;;;;;;;;;;29.50;29.90;;;;;;5077270;28;19934;-63
2021/01/26 03:24:47;;;;;;;;;;;29.50;29.90;;;;;;5063496;28;19993;-63
2021/01/26 03:27:14;;;;;;;;;;;29.50;29.90;;;;;;5056764;28;20282;-63
2021/01/26 03:29:40;;;;;;;;;;;29.50;29.90;;;;;;5056573;28;20333;-63
2021/01/26 03:32:08;;;;;;;;;;;29.50;29.90;;;;;;5056921;28;19908;-63
2021/01/26 03:34:34;;;;;;;;;;;29.50;29.90;;;;;;5056851;28;20299;-63
2021/01/26 03:37:00;;;;;;;;;;;29.50;29.90;;;;;;5074568;28;19912;-63
2021/01/26 03:39:26;;;;;;;;;;;29.50;29.90;;;;;;5074975;28;19916;-63
2021/01/26 03:41:51;;;;;;;;;;;29.50;29.80;;;;;;5074765;28;19985;-63
2021/01/26 03:44:17;;;;;;;;;;;29.50;29.80;;;;;;5056484;28;19919;-63
2021/01/26 03:46:50;;;;;;;;;;;29.50;29.80;;;;;;5060019;28;19920;-63
2021/01/26 03:49:30;;;;;;;;;;;29.50;30.30;;;;;;5094628;28;19912;-63
2021/01/26 03:52:16;;;;;;;;;;;29.50;29.80;;;;;;5094753;28;19954;-63
2021/01/26 03:54:43;;;;;;;;;;;29.50;29.90;;;;;;5042738;28;20014;-63
2021/01/26 03:57:08;;;;;;;;;;;29.50;29.90;;;;;;5076250;28;20425;-63
2021/01/26 03:59:35;;;;;;;;;;;29.40;29.90;;;;;;5093901;28;19954;-63
2021/01/26 04:02:06;;;;;;;;;;;29.40;29.90;;;;;;5085666;28;19912;-62
2021/01/26 04:04:33;;;;;;;;;;;29.50;29.90;;;;;;5055896;28;20373;-63
2021/01/26 04:06:59;;;;;;;;;;;29.50;29.90;;;;;;5056177;28;19920;-63
2021/01/26 04:09:26;;;;;;;;;;;29.50;29.90;;;;;;5074208;28;19909;-63
2021/01/26 04:11:53;;;;;;;;;;;29.50;29.90;;;;;;5056079;28;19908;-63
2021/01/26 04:14:26;;;;;;;;;;;29.50;29.90;;;;;;5073992;28;19983;-63
2021/01/26 04:16:53;;;;;;;;;;;29.50;29.90;;;;;;5064657;28;19961;-63
2021/01/26 04:19:24;;;;;;;;;;;29.40;29.80;;;;;;5075927;28;19965;-63
2021/01/26 04:21:49;;;;;;;;;;;29.50;29.90;;;;;;5076108;28;19931;-63
2021/01/26 04:24:15;;;;;;;;;;;29.50;29.80;;;;;;5093464;28;20258;-63
2021/01/26 04:26:41;;;;;;;;;;;29.50;29.80;;;;;;5073738;28;20041;-63
2021/01/26 04:29:06;;;;;;;;;;;29.40;29.80;;;;;;5055447;28;20367;-63
2021/01/26 04:31:32;;;;;;;;;;;29.50;29.80;;;;;;5085353;28;19999;-63
2021/01/26 04:33:57;;;;;;;;;;;29.40;29.70;;;;;;5093826;28;19939;-63
2021/01/26 04:36:23;;;;;;;;;;;29.50;29.70;;;;;;5093555;28;20390;-63
2021/01/26 04:38:49;;;;;;;;;;;29.50;29.70;;;;;;5093440;28;19923;-63
2021/01/26 04:41:17;;;;;;;;;;;29.50;29.60;;;;;;5093386;28;19908;-63
2021/01/26 04:43:46;;;;;;;;;;;29.50;29.60;;;;;;5093509;28;19962;-63
2021/01/26 04:46:30;;;;;;;;;;;29.50;29.60;;;;;;5081765;28;19916;-62
2021/01/26 04:48:59;;;;;;;;;;;29.50;29.60;;;;;;5073424;28;19995;-62
2021/01/26 04:51:30;;;;;;;;;;;29.50;29.60;;;;;;5073019;28;19915;-63
2021/01/26 04:54:14;;;;;;;;;;;29.50;30.00;;;;;;5060990;28;19912;-63
2021/01/26 04:56:39;;;;;;;;;;;29.50;29.50;;;;;;5093216;28;20011;-62
2021/01/26 04:59:08;;;;;;;;;;;29.50;29.50;;;;;;5093414;28;19958;-63
2021/01/26 05:01:55;;;;;;;;;;;29.50;29.50;;;;;;5093196;28;19973;-62
2021/01/26 05:04:25;;;;;;;;;;;29.50;29.50;;;;;;5093313;28;20295;-62
2021/01/26 05:06:51;;;;;;;;;;;29.50;29.50;;;;;;5093239;28;20392;-62
2021/01/26 05:09:17;;;;;;;;;;;29.40;29.40;;;;;;5091554;28;19912;-63
2021/01/26 05:11:43;;;;;;;;;;;29.50;29.50;;;;;;5092997;28;19967;-63
2021/01/26 05:14:14;;;;;;;;;;;29.50;29.50;;;;;;5075101;28;20262;-63
2021/01/26 05:16:57;;;;;;;;;;;29.50;29.50;;;;;;5092874;28;19908;-63
2021/01/26 05:19:38;;;;;;;;;;;29.50;29.50;;;;;;5093101;28;19912;-62
2021/01/26 05:22:13;;;;;;;;;;;29.50;29.50;;;;;;5074858;28;19997;-63
2021/01/26 05:24:54;;;;;;;;;;;29.40;29.40;;;;;;5058850;28;19924;-62
2021/01/26 05:27:20;;;;;;;;;;;29.50;29.50;;;;;;5072671;28;20354;-63
2021/01/26 05:29:45;;;;;;;;;;;29.50;29.50;;;;;;5072606;28;19924;-62
2021/01/26 05:32:11;;;;;;;;;;;29.50;29.40;;;;;;5072974;28;19935;-63
2021/01/26 05:34:37;;;;;;;;;;;29.50;29.40;;;;;;5072571;28;19916;-63
2021/01/26 05:37:04;;;;;;;;;;;29.50;29.30;;;;;;5054566;28;20452;-63
2021/01/26 05:39:30;;;;;;;;;;;29.50;29.30;;;;;;5089218;28;19913;-63
2021/01/26 05:41:56;;;;;;;;;;;29.50;29.30;;;;;;5074805;28;19951;-62
2021/01/26 05:44:22;;;;;;;;;;;29.50;29.30;;;;;;5087127;28;20382;-62
2021/01/26 05:46:48;;;;;;;;;;;29.50;29.30;;;;;;5074654;28;19912;-63
2021/01/26 05:49:14;;;;;;;;;;;29.50;29.30;;;;;;5092548;28;19912;-63
2021/01/26 05:51:40;;;;;;;;;;;29.50;29.30;;;;;;5075113;28;20268;-63
2021/01/26 05:54:10;;;;;;;;;;;29.50;29.30;;;;;;5092483;28;20373;-63
2021/01/26 05:56:35;;;;;;;;;;;29.50;29.20;;;;;;5074613;28;19915;-62
2021/01/26 05:59:17;;;;;;;;;;;29.50;29.20;;;;;;5073343;28;19909;-63
2021/01/26 06:01:43;;;;;;;;;;;29.50;29.20;;;;;;5086242;28;19965;-63
2021/01/26 06:04:13;;;;;;;;;;;29.50;29.20;;;;;;5092536;28;19919;-63
2021/01/26 06:06:48;;;;;;;;;;;29.50;29.20;;;;;;5092591;28;19974;-62
2021/01/26 06:09:26;;;;;;;;;;;29.50;29.20;;;;;;5092605;28;19908;-63
2021/01/26 06:11:54;;;;;;;;;;;29.50;29.20;;;;;;5092540;28;19925;-62
2021/01/26 06:14:20;;;;;;;;;;;29.50;29.20;;;;;;5069480;28;19931;-63
2021/01/26 06:16:45;;;;;;;;;;;29.50;29.10;;;;;;5092276;28;19909;-63
2021/01/26 06:19:13;;;;;;;;;;;29.50;29.10;;;;;;5091392;28;19954;-64
2021/01/26 06:21:49;;;;;;;;;;;29.50;29.10;;;;;;5072382;28;20042;-63
2021/01/26 06:24:15;;;;;;;;;;;29.50;29.10;;;;;;5074465;28;19916;-63
2021/01/26 06:26:40;;;;;;;;;;;29.50;29.10;;;;;;5076055;28;19909;-63
2021/01/26 06:29:12;;;;;;;;;;;29.50;29.10;;;;;;5071753;28;19929;-63
2021/01/26 06:31:48;;;;;;;;;;;29.50;29.10;;;;;;5085194;28;19913;-63
2021/01/26 06:34:19;;;;;;;;;;;29.50;29.10;;;;;;5077094;28;19912;-63
2021/01/26 06:37:00;;;;;;;;;;;29.50;29.10;;;;;;5088794;28;19908;-63
2021/01/26 06:39:25;;;;;;;;;;;29.50;29.10;;;;;;5075736;28;19962;-63
2021/01/26 06:42:01;;;;;;;;;;;29.50;29.10;;;;;;5075889;28;20313;-62
2021/01/26 06:44:45;;;;;;;;;;;29.50;29.10;;;;;;5057937;28;19909;-62
2021/01/26 06:47:24;;;;;;;;;;;29.50;29.10;;;;;;5075573;28;19912;-62
2021/01/26 06:49:52;;;;;;;;;;;29.40;29.20;;;;;;5057442;28;20374;-62
2021/01/26 06:52:27;;;;;;;;;;;29.40;29.10;;;;;;5077543;28;19957;-62
2021/01/26 06:55:01;;;;;;;;;;;29.40;29.20;;;;;;5095315;28;19923;-63
2021/01/26 06:57:50;;;;;;;;;;;29.40;29.10;;;;;;5095461;28;19916;-62
2021/01/26 07:00:18;;;;;;;;;;;29.40;29.10;;;;;;5077411;28;19994;-62
2021/01/26 07:03:02;;;;;;;;;;;29.40;29.10;;;;;;5095417;28;19962;-62
2021/01/26 07:05:40;;;;;;;;;;;29.40;29.10;;;;;;5095340;28;20376;-62
2021/01/26 07:08:11;;;;;;;;;;;29.40;29.10;;;;;;5095360;28;19933;-63
2021/01/26 07:10:56;;;;;;;;;;;29.40;29.10;;;;;;5094986;28;19931;-62
2021/01/26 07:13:41;;;;;;;;;;;29.40;29.50;;;;;;5094868;28;20369;-62
2021/01/26 07:16:13;;;;;;;;;;;29.40;29.10;;;;;;5093891;28;20285;-62
2021/01/26 07:18:41;;;;;;;;;;;29.40;29.10;;;;;;5094930;28;19908;-62
2021/01/26 07:21:13;;;;;;;;;;;29.40;29.10;;;;;;5095331;28;19969;-62
2021/01/26 07:23:51;;;;;;;;;;;29.40;29.10;;;;;;5077247;28;20258;-62
2021/01/26 07:26:20;;;;;;;;;;;29.40;29.10;;;;;;5081079;28;19909;-62
2021/01/26 07:28:45;;;;;;;;;;;29.40;29.10;;;;;;5056548;28;20277;-61
2021/01/26 07:31:19;;;;;;;;;;;29.40;29.00;;;;;;5074915;28;19912;-62
2021/01/26 07:34:03;;;;;;;;;;;29.40;29.10;;;;;;5074773;28;20289;-62
2021/01/26 07:36:39;;;;;;;;;;;29.40;29.00;;;;;;5073871;28;19916;-63
2021/01/26 07:39:16;;;;;;;;;;;29.40;29.00;;;;;;5074484;28;19912;-62
2021/01/26 07:41:48;;;;;;;;;;;29.40;29.00;;;;;;5064758;28;20287;-62
2021/01/26 07:44:15;;;;;;;;;;;29.40;29.00;;;;;;5094625;28;20362;-62
2021/01/26 07:46:45;;;;;;;;;;;29.40;29.00;;;;;;5076613;28;20010;-62
2021/01/26 07:49:14;;;;;;;;;;;29.40;29.10;;;;;;5092835;28;19951;-63
2021/01/26 07:51:43;;;;;;;;;;;29.40;28.90;;;;;;5094749;28;19913;-62
2021/01/26 07:54:14;;;;;;;;;;;29.40;28.90;;;;;;5094605;28;19943;-52
2021/01/26 07:56:40;;;;;;;;;;;29.30;28.70;;;;;;5078222;28;20266;-54
2021/01/26 07:59:08;;;;;;;;;;;28.10;22.80;;;;;;5074251;28;19919;-60
2021/01/26 08:01:35;;;;;;;;;;;27.60;25.50;;;;;;5074607;28;19931;-53
2021/01/26 08:04:01;;;;;;;;;;;27.60;26.60;;;;;;5075735;28;19965;-58
2021/01/26 08:06:36;;;;;;;;;;;28.00;27.10;;;;;;5094136;28;19908;-51
2021/01/26 08:09:02;;;;;;;;;;;28.30;27.20;;;;;;5094457;28;20273;-52
2021/01/26 08:11:28;;;;;;;;;;;28.60;27.30;;;;;;5080554;28;19943;-52
2021/01/26 08:13:54;;;;;;;;;;;28.70;27.30;;;;;;5074121;28;19940;-60
2021/01/26 08:16:32;;;;;;;;;;;28.90;27.40;;;;;;5056019;28;19916;-61
2021/01/26 08:18:58;;;;;;;;;;;29.00;27.50;;;;;;5074077;28;19916;-61
2021/01/26 08:21:26;;;;;;;;;;;29.10;27.50;;;;;;5080996;28;20369;-61
2021/01/26 08:23:51;;;;;;;;;;;29.10;27.60;;;;;;5073857;28;19915;-61
2021/01/26 08:26:18;;;;;;;;;;;29.20;27.80;;;;;;5073505;28;19913;-60
2021/01/26 08:28:45;;;;;;;;;;;29.20;28.10;;;;;;5055793;28;19995;-61
2021/01/26 08:31:31;;;;;;;;;;;29.20;27.90;;;;;;5084031;28;20461;-54
2021/01/26 08:34:11;;;;;;;;;;;29.20;28.10;;;;;;5092939;28;19919;-57
2021/01/26 08:36:37;;;;;;;;;;;29.30;28.40;;;;;;5075381;28;20344;-49
2021/01/26 08:39:29;;;;;;;;;;;29.20;28.40;;;;;;5093906;28;19943;-55
2021/01/26 08:41:55;;;;;;;;;;;29.30;28.50;;;;;;5088420;28;19915;-64
2021/01/26 08:44:20;;;;;;;;;;;29.20;28.50;;;;;;5093191;28;19908;-63
2021/01/26 08:46:46;;;;;;;;;;;29.20;28.50;;;;;;5088779;28;19955;-75
2021/01/26 08:49:18;;;;;;;;;;;29.30;28.70;;;;;;5086798;28;19912;-62
2021/01/26 08:51:43;;;;;;;;;;;29.30;28.70;;;;;;5073017;28;19914;-61
2021/01/26 08:54:09;;;;;;;;;;;29.20;28.80;;;;;;5055142;28;20267;-56
2021/01/26 08:56:35;;;;;;;;;;;29.20;29.00;;;;;;5073190;28;19972;-52
2021/01/26 08:59:01;;;;;;;;;;;29.20;29.00;;;;;;5055489;28;20423;-58
2021/01/26 09:01:29;;;;;;;;;;;29.20;29.00;;;;;;5086008;28;19981;-56
2021/01/26 09:03:55;;;;;;;;;;;29.20;29.00;;;;;;5093047;28;20251;-51
2021/01/26 09:06:26;;;;;;;;;;;29.20;29.00;;;;;;5093374;28;19954;-58
2021/01/26 09:08:52;;;;;;;;;;;29.20;29.00;;;;;;5093215;28;19969;-61
2021/01/26 09:11:20;;;;;;;;;;;29.30;29.10;;;;;;5092989;28;20293;-63
2021/01/26 09:13:45;;;;;;;;;;;29.20;29.00;;;;;;5092896;28;19951;-65
2021/01/26 09:16:17;;;;;;;;;;;29.30;29.10;;;;;;5071111;28;19966;-66
2021/01/26 09:18:43;;;;;;;;;;;29.30;29.30;;;;;;5092787;28;19960;-58
2021/01/26 09:21:11;;;;;;;;;;;29.30;29.40;;;;;;5090136;28;19920;-63
2021/01/26 09:23:36;;;;;;;;;;;29.30;29.40;;;;;;5073116;28;19916;-61
2021/01/26 09:26:09;;;;;;;;;;;29.30;29.40;;;;;;5054388;28;19912;-61
2021/01/26 09:28:44;;;;;;;;;;;29.20;29.60;;;;;;5072939;28;19909;-61
2021/01/26 09:31:11;;;;;;;;;;;29.20;29.70;;;;;;5071346;28;19921;-70
2021/01/26 09:33:36;;;;;;;;;;;29.10;29.80;;;;;;5053836;28;19912;-59
2021/01/26 09:36:02;;;;;;;;;;;29.10;29.80;;;;;;5072504;28;19932;-63
2021/01/26 09:38:34;;;;;;;;;;;29.20;29.80;;;;;;5079044;28;19919;-63
2021/01/26 09:41:01;;;;;;;;;;;29.20;29.90;;;;;;5092050;28;20285;-63
2021/01/26 09:43:30;;;;;;;;;;;29.20;29.90;;;;;;5092353;28;19909;-64
2021/01/26 09:46:11;;;;;;;;;;;29.20;29.90;;;;;;5092289;28;20332;-61
2021/01/26 09:48:36;;;;;;;;;;;29.20;30.00;;;;;;5092380;28;20010;-52
2021/01/26 09:51:03;;;;;;;;;;;29.20;30.10;;;;;;5091919;28;20010;-58
2021/01/26 09:53:29;;;;;;;;;;;29.20;30.20;;;;;;5074058;28;19920;-61
2021/01/26 09:55:54;;;;;;;;;;;29.20;30.10;;;;;;5091847;28;19920;-60
2021/01/26 09:58:20;;;;;;;;;;;29.30;30.40;;;;;;5076071;28;19918;-61
2021/01/26 10:00:46;;;;;;;;;;;29.20;30.40;;;;;;5077893;28;19914;-58
2021/01/26 10:03:11;;;;;;;;;;;29.30;30.30;;;;;;5078228;28;19958;-59
2021/01/26 10:05:36;;;;;;;;;;;29.30;30.30;;;;;;5094047;28;19908;-52
2021/01/26 10:08:02;;;;;;;;;;;29.30;30.40;;;;;;5096251;28;19912;-49
2021/01/26 10:10:28;;;;;;;;;;;29.30;30.80;;;;;;5095756;28;19999;-59
2021/01/26 10:12:53;;;;;;;;;;;29.30;30.00;;;;;;5096145;28;20015;-56
2021/01/26 10:15:22;;;;;;;;;;;29.30;30.10;;;;;;5095784;28;20324;-65
2021/01/26 10:17:50;;;;;;;;;;;29.30;29.90;;;;;;5095683;28;20375;-53
2021/01/26 10:20:23;;;;;;;;;;;29.30;30.30;;;;;;5083732;28;19954;-61
2021/01/26 10:22:48;;;;;;;;;;;29.40;30.00;;;;;;5057725;28;19954;-52
2021/01/26 10:25:14;;;;;;;;;;;29.30;30.40;;;;;;5075195;28;19939;-51
2021/01/26 10:27:39;;;;;;;;;;;29.30;30.30;;;;;;5078560;28;20344;-60
2021/01/26 10:30:18;;;;;;;;;;;29.30;30.30;;;;;;5095402;28;19920;-62
2021/01/26 10:32:48;;;;;;;;;;;29.30;30.70;;;;;;5095668;28;19912;-64
2021/01/26 10:35:25;;;;;;;;;;;29.40;31.20;;;;;;5095725;28;19920;-63
2021/01/26 10:37:51;;;;;;;;;;;29.40;30.90;;;;;;5076173;28;19920;-64
2021/01/26 10:40:17;;;;;;;;;;;;;;;;;;5056953;28;19912;-62
2021/01/26 10:42:46;;;;;;;;;;;29.50;36.10;;;;;;5075271;28;19915;-54
2021/01/26 10:45:12;;;;;;;;;;;29.60;40.50;;;;;;5056723;28;19948;-60
2021/01/26 10:47:38;;;;;;;;;;;29.70;40.70;;;;;;5095155;28;19950;-56
2021/01/26 10:50:04;;;;;;;;;;;29.90;39.60;;;;;;5077225;28;19912;-58
2021/01/26 10:52:48;;;;;;;;;;;30.00;38.70;;;;;;5079310;28;19940;-51
2021/01/26 10:55:17;;;;;;;;;;;30.10;39.00;;;;;;5056814;28;19952;-51
2021/01/26 10:57:43;;;;;;;;;;;30.20;38.40;;;;;;5074615;28;20358;-59
2021/01/26 11:00:09;;;;;;;;;;;30.30;37.10;;;;;;5084640;28;19924;-55
2021/01/26 11:02:34;;;;;;;;;;;30.30;37.70;;;;;;5074626;28;19923;-61
2021/01/26 11:05:00;;;;;;;;;;;30.40;36.90;;;;;;5074665;28;19909;-61
2021/01/26 11:07:25;;;;;;;;;;;30.50;36.30;;;;;;5075039;28;19912;-54
2021/01/26 11:09:51;;;;;;;;;;;30.50;36.00;;;;;;5074177;28;20007;-60
2021/01/26 11:12:18;;;;;;;;;;;30.60;35.80;;;;;;5074390;28;19908;-53
2021/01/26 11:14:44;;;;;;;;;;;30.60;35.30;;;;;;5074188;28;19920;-53
2021/01/26 11:17:10;;;;;;;;;;;;;;;;;;5081551;28;19939;-66
2021/01/26 11:19:35;;;;;;;;;;;30.60;27.90;;;;;;5094477;28;19912;-68
2021/01/26 11:22:01;;;;;;;;;;;30.70;28.00;;;;;;5094339;28;19908;-67
2021/01/26 11:24:26;;;;;;;;;;;30.70;27.70;;;;;;5093379;28;19916;-66
2021/01/26 11:26:52;;;;;;;;;;;30.70;27.90;;;;;;5093840;28;19919;-66
2021/01/26 11:29:17;;;;;;;;;;;30.70;28.20;;;;;;5094394;28;20400;-67
2021/01/26 11:31:43;;;;;;;;;;;30.60;28.20;;;;;;5094295;28;19912;-64
2021/01/26 11:34:08;;;;;;;;;;;30.60;28.50;;;;;;5074242;28;19916;-55
2021/01/26 11:36:34;;;;;;;;;;;30.40;28.90;;;;;;5087272;28;20320;-72
2021/01/26 11:38:59;;;;;;;;;;;30.40;29.00;;;;;;5094545;28;19999;-72
2021/01/26 11:41:25;;;;;;;;;;;30.40;29.10;;;;;;5095004;28;19908;-72
2021/01/26 11:43:50;;;;;;;;;;;30.40;29.20;;;;;;5094618;28;19908;-59
2021/01/26 11:46:16;;;;;;;;;;;30.40;29.40;;;;;;5094841;28;19914;-62
2021/01/26 11:48:42;;;;;;;;;;;30.40;29.70;;;;;;5092131;28;19912;-62
2021/01/26 11:51:07;;;;;;;;;;;30.30;29.50;;;;;;5073975;28;19991;-61
2021/01/26 11:53:33;;;;;;;;;;;30.30;29.30;;;;;;5074423;28;19909;-62
2021/01/26 11:56:00;;;;;;;;;;;30.30;29.50;;;;;;5074347;28;20366;-62
2021/01/26 11:58:26;;;;;;;;;;;30.30;29.50;;;;;;5073963;28;20394;-61
2021/01/26 12:00:51;;;;;;;;;;;30.30;29.50;;;;;;5074302;28;19947;-54
2021/01/26 12:03:17;;;;;;;;;;;30.30;29.50;;;;;;5074297;28;20282;-52
2021/01/26 12:05:42;;;;;;;;;;;30.30;29.40;;;;;;5073899;28;20065;-51
2021/01/26 12:08:09;;;;;;;;;;;30.30;29.10;;;;;;5091061;28;19919;-52
2021/01/26 12:10:34;;;;;;;;;;;30.30;29.20;;;;;;5094067;28;19915;-55
2021/01/26 12:13:01;;;;;;;;;;;30.30;28.90;;;;;;5093956;28;19991;-59
2021/01/26 12:15:27;;;;;;;;;;;30.30;29.30;;;;;;5094225;28;19916;-59
2021/01/26 12:17:53;;;;;;;;;;;30.30;29.10;;;;;;5094060;28;19974;-62
2021/01/26 12:20:19;;;;;;;;;;;30.30;29.20;;;;;;5075582;28;20351;-55
2021/01/26 12:22:44;;;;;;;;;;;30.30;29.40;;;;;;5072849;28;19908;-57
2021/01/26 12:25:10;;;;;;;;;;;30.30;29.70;;;;;;5073772;28;19909;-55
2021/01/26 12:27:36;;;;;;;;;;;30.30;29.50;;;;;;5073730;28;19912;-52
2021/01/26 12:30:02;;;;;;;;;;;30.30;29.60;;;;;;5073415;28;19921;-57
2021/01/26 12:32:28;;;;;;;;;;;30.30;29.50;;;;;;5073434;28;20274;-57
2021/01/26 12:34:53;;;;;;;;;;;30.30;29.60;;;;;;5087749;28;19920;-54
2021/01/26 12:37:19;;;;;;;;;;;30.30;29.70;;;;;;5093956;28;19912;-55
2021/01/26 12:39:45;;;;;;;;;;;30.30;29.80;;;;;;5093808;28;20303;-57
2021/01/26 12:42:10;;;;;;;;;;;30.30;29.90;;;;;;5093807;28;20354;-61
2021/01/26 12:44:36;;;;;;;;;;;30.40;29.60;;;;;;5093869;28;20385;-60
2021/01/26 12:47:01;;;;;;;;;;;30.30;29.70;;;;;;5093321;28;20030;-56
2021/01/26 12:49:27;;;;;;;;;;;30.30;29.70;;;;;;5084461;28;19912;-58
2021/01/26 12:51:52;;;;;;;;;;;30.30;30.00;;;;;;5072715;28;19921;-60
2021/01/26 12:54:19;;;;;;;;;;;30.30;29.40;;;;;;5072846;28;19920;-53
2021/01/26 12:56:45;;;;;;;;;;;30.30;29.60;;;;;;5072873;28;20428;-61
2021/01/26 12:59:10;;;;;;;;;;;30.30;29.70;;;;;;5073204;28;19912;-62
2021/01/26 13:01:36;;;;;;;;;;;30.30;29.90;;;;;;5075250;28;20277;-52
2021/01/26 13:04:02;;;;;;;;;;;30.40;30.00;;;;;;5092300;28;20361;-59
2021/01/26 13:06:27;;;;;;;;;;;30.40;29.90;;;;;;5093426;28;19998;-50
2021/01/26 13:08:53;;;;;;;;;;;30.40;29.90;;;;;;5093525;28;19908;-56
2021/01/26 13:11:18;;;;;;;;;;;30.40;30.10;;;;;;5093146;28;19915;-52
2021/01/26 13:13:44;;;;;;;;;;;30.40;29.90;;;;;;5093035;28;19909;-61
2021/01/26 13:16:10;;;;;;;;;;;30.40;30.00;;;;;;5093168;28;19920;-57
2021/01/26 13:18:35;;;;;;;;;;;30.40;30.00;;;;;;5092495;28;20447;-61
2021/01/26 13:21:01;;;;;;;;;;;30.40;29.90;;;;;;5082957;28;19916;-68
2021/01/26 13:23:26;;;;;;;;;;;30.40;29.90;;;;;;5072518;28;19920;-57
2021/01/26 13:25:52;;;;;;;;;;;30.40;29.90;;;;;;5072825;28;19954;-61
2021/01/26 13:28:17;;;;;;;;;;;30.40;30.10;;;;;;5072833;28;20000;-60
2021/01/26 13:30:43;;;;;;;;;;;30.40;30.00;;;;;;5072355;28;20005;-66
2021/01/26 13:33:09;;;;;;;;;;;30.40;30.20;;;;;;5072496;28;19920;-61
2021/01/26 13:35:34;;;;;;;;;;;30.40;30.20;;;;;;5077447;28;19921;-61
2021/01/26 13:38:00;;;;;;;;;;;30.40;29.80;;;;;;5072805;28;19909;-61
2021/01/26 13:40:25;;;;;;;;;;;30.30;28.90;;;;;;5072697;28;19909;-61
2021/01/26 13:42:51;;;;;;;;;;;30.20;28.60;;;;;;5072397;28;20433;-56
2021/01/26 13:45:17;;;;;;;;;;;30.20;29.10;;;;;;5072382;28;19966;-59
2021/01/26 13:47:42;;;;;;;;;;;30.20;29.00;;;;;;5089781;28;19938;-60
2021/01/26 13:50:08;;;;;;;;;;;30.30;29.40;;;;;;5079014;28;20405;-53
2021/01/26 13:52:34;;;;;;;;;;;30.30;28.40;;;;;;5072281;28;19959;-61
2021/01/26 13:54:59;;;;;;;;;;;30.30;29.00;;;;;;5072405;28;19960;-65
2021/01/26 13:57:25;;;;;;;;;;;30.30;29.60;;;;;;5072448;28;20428;-63
2021/01/26 13:59:50;;;;;;;;;;;30.30;29.80;;;;;;5072307;28;19915;-63
2021/01/26 14:02:16;;;;;;;;;;;30.30;29.80;;;;;;5072303;28;19915;-63
2021/01/26 14:04:41;;;;;;;;;;;30.20;29.30;;;;;;5084437;28;20348;-63
2021/01/26 14:07:07;;;;;;;;;;;30.30;29.20;;;;;;5092339;28;19912;-63
2021/01/26 14:09:32;;;;;;;;;;;30.30;29.60;;;;;;5092778;28;19938;-63
2021/01/26 14:11:58;;;;;;;;;;;30.30;29.80;;;;;;5092389;28;20370;-63
2021/01/26 14:14:23;;;;;;;;;;;30.40;29.80;;;;;;5092541;28;19916;-53
2021/01/26 14:16:49;;;;;;;;;;;30.30;29.20;;;;;;5092305;28;20372;-50
2021/01/26 14:19:14;;;;;;;;;;;30.30;29.30;;;;;;5081644;28;20362;-52
2021/01/26 14:21:40;;;;;;;;;;;30.30;29.60;;;;;;5072176;28;19912;-54
2021/01/26 14:24:05;;;;;;;;;;;30.30;29.60;;;;;;5072226;28;19916;-49
2021/01/26 14:26:31;;;;;;;;;;;30.40;29.90;;;;;;5072387;28;20359;-50